This is the latest recevied weather packets stored in our database for station/object KC1TLF-15. If no packets are shown the sender has not sent any weather packets the latest 10 day(s).
| Time | Temp. | Humidity | Pressure | Rain* | Wind** | Luminosity | Snow |
|---|---|---|---|---|---|---|---|
| 1777862470 | 2.78° C | 77% | 1017.8 hPa | 0 mm | 0 m/s | 0 W/m² | - |
| 1777861869 | 3.33° C | 77% | 1017.8 hPa | 0 mm | 0 m/s | 0 W/m² | - |
| 1777861270 | 3.33° C | 77% | 1017.8 hPa | 0 mm | 0 m/s | 0 W/m² | - |
| 1777860671 | 3.89° C | 77% | 1017.8 hPa | 0 mm | 0 m/s | 0 W/m² | - |
| 1777860070 | 3.89° C | 76% | 1017.6 hPa | 0 mm | 0 m/s | 0 W/m² | - |
| 1777859469 | 3.89° C | 75% | 1017.6 hPa | 0 mm | 0 m/s | 0 W/m² | - |
| 1777858871 | 3.89° C | 74% | 1017.7 hPa | 0 mm | 0 m/s | 0 W/m² | - |
| 1777858271 | 4.44° C | 71% | 1017.7 hPa | 0 mm | 0 m/s | 0 W/m² | - |
| 1777857669 | 4.44° C | 69% | 1017.5 hPa | 0 mm | 0 m/s | 0 W/m² | - |
| 1777857071 | 5° C | 69% | 1017.6 hPa | 0 mm | 0 m/s | 0 W/m² | - |
| 1777856470 | 5° C | 66% | 1017.4 hPa | 0 mm | 0 m/s | 0 W/m² | - |
| 1777855870 | 5.56° C | 65% | 1017 hPa | 0 mm | 0 m/s | 0 W/m² | - |
| 1777855270 | 6.11° C | 63% | 1017.1 hPa | 0 mm | 0 m/s | 0 W/m² | - |
| 1777854669 | 6.67° C | 60% | 1017 hPa | 0 mm | 0 m/s | 0 W/m² | - |
| 1777854071 | 7.22° C | 60% | 1016.8 hPa | 0 mm | 0 m/s | - | - |
| 1777853471 | 7.78° C | 54% | 1016.7 hPa | 0 mm | 0 m/s | - | - |
| 1777852870 | 8.33° C | 50% | 1016.5 hPa | 0 mm | 0 m/s | - | - |
| 1777852270 | 9.44° C | 47% | 1016.7 hPa | 0 mm | 0 m/s | - | - |
| 1777851669 | 10° C | 47% | 1016.3 hPa | 0 mm | 0 m/s | - | - |
| 1777851071 | 10° C | 46% | 1016.2 hPa | 0 mm | 0.45 m/s, 309° | - | - |
| 1777850471 | 10° C | 42% | 1016.3 hPa | 0 mm | 0 m/s | - | - |
| 1777849871 | 10.56° C | 43% | 1016.1 hPa | 0 mm | 0.45 m/s, 315° | - | - |
| 1777849270 | 10.56° C | 41% | 1016.1 hPa | 0 mm | 1.34 m/s, 326° | - | - |
| 1777848676 | 10.56° C | 41% | 1016 hPa | 0 mm | 1.34 m/s, 310° | - | - |
| 1777848071 | 10.56° C | 44% | 1015.9 hPa | 0 mm | 0.45 m/s, 322° | - | - |
* Rain latest hour (hover to see other rain measurements)
** Current wind speed in m/s (hover to see current wind gust speed)